createdAt,value
2023-04-26T00:02:46.444Z,100510.16
2023-04-26T00:07:50.448Z,100519.47
2023-04-26T00:12:52.433Z,100510.19
2023-04-26T00:17:54.056Z,100497.66
2023-04-26T00:22:55.766Z,100501.75
2023-04-26T00:27:57.488Z,100505.97
2023-04-26T00:32:59.090Z,100502.22
2023-04-26T00:38:00.912Z,100498.13
2023-04-26T00:43:03.436Z,100487.84
2023-04-26T00:48:05.317Z,100495.47
2023-04-26T00:53:08.526Z,100492.44
2023-04-26T00:58:10.814Z,100498.22
2023-04-26T01:03:12.554Z,100492.84
2023-04-26T01:08:17.219Z,100494.25
2023-04-26T01:13:18.960Z,100505.56
2023-04-26T01:18:22.059Z,100508.84
2023-04-26T01:23:24.791Z,100489.06
2023-04-26T01:28:26.960Z,100484.50
2023-04-26T01:33:28.494Z,100486.78
2023-04-26T01:38:30.030Z,100481.69
2023-04-26T01:43:31.631Z,100490.38
2023-04-26T01:48:33.213Z,100500.66
2023-04-26T01:53:36.010Z,100493.47
2023-04-26T01:58:39.470Z,100495.31
2023-04-26T02:03:41.195Z,100496.47
2023-04-26T02:08:42.765Z,100492.31
2023-04-26T02:13:44.313Z,100488.28
2023-04-26T02:18:46.020Z,100494.47
2023-04-26T02:23:48.200Z,100501.47
2023-04-26T02:28:49.961Z,100502.91
2023-04-26T02:33:51.555Z,100502.19
2023-04-26T02:38:53.303Z,100493.25
2023-04-26T02:43:55.401Z,100501.81
2023-04-26T02:48:57.100Z,100505.91
2023-04-26T02:53:59.150Z,100508.47
2023-04-26T02:59:00.881Z,100506.66
2023-04-26T03:04:02.693Z,100507.69
2023-04-26T03:09:05.845Z,100505.88
2023-04-26T03:14:07.712Z,100496.59
2023-04-26T03:19:09.662Z,100501.34
2023-04-26T03:24:13.555Z,100499.84
2023-04-26T03:29:15.990Z,100490.22
2023-04-26T03:34:17.585Z,100494.97
2023-04-26T03:39:22.194Z,100505.25
2023-04-26T03:44:23.912Z,100514.22
2023-04-26T03:49:25.734Z,100509.47
2023-04-26T03:54:27.469Z,100505.44
2023-04-26T03:59:30.019Z,100498.69
2023-04-26T04:04:32.022Z,100497.63
2023-04-26T04:09:33.954Z,100498.16
2023-04-26T04:14:35.658Z,100496.78
2023-04-26T04:19:37.558Z,100513.31
2023-04-26T04:24:39.407Z,100509.94
2023-04-26T04:29:41.531Z,100518.41
2023-04-26T04:34:44.388Z,100509.78
2023-04-26T04:39:46.581Z,100513.31
2023-04-26T04:44:50.070Z,100526.66
2023-04-26T04:49:53.049Z,100524.00
2023-04-26T04:54:55.961Z,100538.88
2023-04-26T04:59:58.534Z,100530.59
2023-04-26T05:05:02.070Z,100544.59
2023-04-26T05:10:04.539Z,100550.66
2023-04-26T05:15:07.203Z,100550.13
2023-04-26T05:20:09.345Z,100542.25
2023-04-26T05:25:11.493Z,100554.16
2023-04-26T05:30:13.991Z,100559.13
2023-04-26T05:35:35.586Z,100560.19
2023-04-26T05:40:37.298Z,100561.72
2023-04-26T05:45:39.745Z,100561.97
2023-04-26T05:50:41.757Z,100567.47
2023-04-26T05:55:44.106Z,100574.91
2023-04-26T06:00:46.115Z,100585.94
2023-04-26T06:05:47.642Z,100595.78
2023-04-26T06:10:49.270Z,100594.69
2023-04-26T06:15:53.864Z,100594.59
2023-04-26T06:20:56.357Z,100605.50
2023-04-26T06:25:58.034Z,100605.50
2023-04-26T06:31:00.301Z,100594.84
2023-04-26T06:36:02.552Z,100597.50
2023-04-26T06:41:04.264Z,100593.34
2023-04-26T06:46:06.424Z,100577.28
2023-04-26T06:51:08.840Z,100567.16
2023-04-26T06:56:10.414Z,100571.94
2023-04-26T07:01:12.196Z,100557.75
2023-04-26T07:06:13.744Z,100546.66
2023-04-26T07:11:15.526Z,100537.41
2023-04-26T07:16:20.256Z,100526.28
2023-04-26T07:21:21.984Z,100517.25
2023-04-26T07:26:24.450Z,100515.53
2023-04-26T07:31:26.015Z,100511.63
2023-04-26T07:36:28.547Z,100513.66
2023-04-26T07:41:30.276Z,100500.41
2023-04-26T07:46:35.855Z,100513.13
2023-04-26T07:51:37.544Z,100500.06
2023-04-26T07:56:39.089Z,100496.44
2023-04-26T08:01:40.703Z,100485.03
2023-04-26T08:06:45.076Z,100491.84
2023-04-26T08:11:46.675Z,100488.94
2023-04-26T08:16:48.319Z,100465.78
2023-04-26T08:21:50.252Z,100456.69
2023-04-26T08:26:51.974Z,100436.50
2023-04-26T08:31:54.191Z,100445.72
2023-04-26T08:36:58.394Z,100466.56
2023-04-26T08:42:06.829Z,100452.44
2023-04-26T08:47:35.259Z,100446.69
2023-04-26T08:52:41.944Z,100439.25
2023-04-26T08:57:49.559Z,100420.44
2023-04-26T09:02:52.927Z,100404.56
2023-04-26T09:08:02.326Z,100423.03
2023-04-26T09:13:03.967Z,100363.78
2023-04-26T09:18:19.673Z,100405.47
2023-04-26T09:23:21.561Z,100416.50
2023-04-26T09:28:24.382Z,100424.59
2023-04-26T09:33:26.047Z,100343.91
2023-04-26T09:38:27.612Z,100322.09
2023-04-26T09:43:37.699Z,100356.66
2023-04-26T09:48:39.247Z,100397.28
2023-04-26T09:53:46.495Z,100407.41
2023-04-26T09:58:58.334Z,100404.94
2023-04-26T10:04:04.731Z,100386.06
2023-04-26T10:09:09.190Z,100415.03
2023-04-26T10:14:11.396Z,100392.06
2023-04-26T10:19:13.998Z,100381.38
2023-04-26T10:24:16.037Z,100371.94
2023-04-26T10:29:18.069Z,100409.81
2023-04-26T10:34:31.135Z,100375.50
2023-04-26T10:39:32.765Z,100375.53
2023-04-26T10:44:45.806Z,100396.97
2023-04-26T10:49:48.259Z,100379.75
2023-04-26T10:54:57.753Z,100382.25
2023-04-26T11:00:14.404Z,100389.25
2023-04-26T11:05:35.862Z,100384.97
2023-04-26T11:10:38.981Z,100371.19
2023-04-26T11:15:40.757Z,100306.91
2023-04-26T11:20:42.344Z,100328.34
2023-04-26T11:25:46.727Z,100323.22
2023-04-26T11:30:50.461Z,100337.25
2023-04-26T11:35:53.978Z,100321.78
2023-04-26T11:40:57.208Z,100320.59
2023-04-26T11:46:03.475Z,100325.91
2023-04-26T11:51:07.293Z,100339.78
2023-04-26T11:56:23.121Z,100340.66
2023-04-26T12:01:29.817Z,100339.75
2023-04-26T12:06:41.671Z,100325.66
2023-04-26T12:11:49.549Z,100319.50
2023-04-26T12:16:51.181Z,100311.97
2023-04-26T12:21:53.402Z,100324.66
2023-04-26T12:26:55.068Z,100312.31
2023-04-26T12:31:57.321Z,100331.41
2023-04-26T12:36:59.022Z,100315.59
2023-04-26T12:42:00.675Z,100298.53
2023-04-26T12:47:02.430Z,100312.59
2023-04-26T12:52:04.394Z,100313.78
2023-04-26T12:57:06.139Z,100318.06
2023-04-26T13:02:10.642Z,100306.06
2023-04-26T13:07:14.879Z,100309.91
2023-04-26T13:12:16.529Z,100317.34
2023-04-26T13:17:18.117Z,100306.50
2023-04-26T13:22:20.586Z,100310.69
2023-04-26T13:27:22.555Z,100300.81
2023-04-26T13:32:24.228Z,100312.19
2023-04-26T13:37:26.965Z,100297.31
2023-04-26T13:42:28.609Z,100311.22
2023-04-26T13:47:30.193Z,100281.03
2023-04-26T13:52:31.788Z,100295.97
2023-04-26T13:57:33.351Z,100295.44
2023-04-26T14:02:35.056Z,100291.66
2023-04-26T14:07:36.855Z,100282.94
2023-04-26T14:12:38.570Z,100285.81
2023-04-26T14:17:40.196Z,100282.25
2023-04-26T14:22:41.773Z,100292.25
2023-04-26T14:27:43.748Z,100296.03
2023-04-26T14:32:45.689Z,100284.06
2023-04-26T14:37:47.343Z,100281.75
2023-04-26T14:42:48.979Z,100282.47
2023-04-26T14:47:50.578Z,100275.34
2023-04-26T14:52:52.281Z,100272.91
2023-04-26T14:57:54.543Z,100266.56
2023-04-26T15:02:56.540Z,100258.94
2023-04-26T15:07:58.135Z,100252.59
2023-04-26T15:12:59.696Z,100260.47
2023-04-26T15:18:02.151Z,100256.41
2023-04-26T15:23:03.757Z,100240.69
2023-04-26T15:28:05.475Z,100238.25
2023-04-26T15:33:12.854Z,100245.34
2023-04-26T15:38:14.401Z,100246.50
2023-04-26T15:43:16.316Z,100254.22
2023-04-26T15:48:18.105Z,100240.41
2023-04-26T15:53:20.526Z,100250.13
2023-04-26T15:58:22.332Z,100253.06
2023-04-26T16:03:24.099Z,100238.06
2023-04-26T16:08:39.451Z,100242.16
2023-04-26T16:13:42.323Z,100226.81
2023-04-26T16:18:44.363Z,100202.91
2023-04-26T16:23:45.966Z,100222.31
2023-04-26T16:28:47.501Z,100230.25
2023-04-26T16:33:49.097Z,100229.50
2023-04-26T16:38:50.947Z,100229.50
2023-04-26T16:43:54.162Z,100224.03
2023-04-26T16:48:55.742Z,100229.69
2023-04-26T16:53:57.279Z,100216.66
2023-04-26T16:58:59.190Z,100216.22
2023-04-26T17:04:00.993Z,100223.44
2023-04-26T17:09:04.380Z,100231.66
2023-04-26T17:14:06.280Z,100231.31
2023-04-26T17:19:07.857Z,100237.53
2023-04-26T17:24:09.401Z,100234.22
2023-04-26T17:29:11.002Z,100238.53
2023-04-26T17:34:12.674Z,100235.22
2023-04-26T17:39:14.410Z,100240.13
2023-04-26T17:44:16.036Z,100231.88
2023-04-26T17:49:17.716Z,100249.38
2023-04-26T17:54:19.269Z,100256.63
2023-04-26T17:59:20.807Z,100264.31
2023-04-26T18:04:23.887Z,100268.25
2023-04-26T18:09:25.832Z,100277.22
2023-04-26T18:14:27.894Z,100286.06
2023-04-26T18:19:29.456Z,100291.19
2023-04-26T18:24:31.102Z,100278.91
2023-04-26T18:29:32.910Z,100282.38
2023-04-26T18:34:34.507Z,100295.34
2023-04-26T18:39:36.115Z,100303.84
2023-04-26T18:44:37.957Z,100308.28
2023-04-26T18:49:39.678Z,100323.88
2023-04-26T18:54:41.394Z,100327.81
2023-04-26T18:59:42.916Z,100333.28
2023-04-26T19:04:44.760Z,100347.75
2023-04-26T19:09:54.109Z,100357.78
2023-04-26T19:14:56.900Z,100362.16
2023-04-26T19:19:58.570Z,100367.69
2023-04-26T19:25:00.198Z,100370.97
2023-04-26T19:30:01.825Z,100381.22
2023-04-26T19:35:06.067Z,100388.00
2023-04-26T19:40:09.093Z,100386.28
2023-04-26T19:45:11.319Z,100398.78
2023-04-26T19:50:12.996Z,100395.91
2023-04-26T19:55:14.914Z,100384.25
2023-04-26T20:00:16.925Z,100395.44
2023-04-26T20:05:18.678Z,100407.28
2023-04-26T20:10:23.518Z,100403.72
2023-04-26T20:15:25.111Z,100405.00
2023-04-26T20:20:26.893Z,100410.22
2023-04-26T20:25:28.466Z,100412.97
2023-04-26T20:30:33.798Z,100414.84
2023-04-26T20:35:35.479Z,100410.66
2023-04-26T20:40:37.588Z,100403.53
2023-04-26T20:45:40.434Z,100408.13
2023-04-26T20:50:42.113Z,100403.31
2023-04-26T20:55:43.660Z,100403.09
2023-04-26T21:00:45.201Z,100401.44
2023-04-26T21:05:46.852Z,100407.09
2023-04-26T21:10:48.664Z,100401.00
2023-04-26T21:15:50.265Z,100407.28
2023-04-26T21:20:51.805Z,100407.72
2023-04-26T21:25:53.361Z,100403.31
2023-04-26T21:31:05.298Z,100408.13
2023-04-26T21:36:07.226Z,100415.06
2023-04-26T21:41:08.806Z,100410.25
2023-04-26T21:46:11.908Z,100414.88
2023-04-26T21:51:13.653Z,100426.41
2023-04-26T21:56:15.304Z,100415.06
2023-04-26T22:01:17.032Z,100415.28
2023-04-26T22:06:18.679Z,100418.22
2023-04-26T22:11:21.633Z,100423.88
2023-04-26T22:16:23.229Z,100414.84
2023-04-26T22:21:24.964Z,100422.19
2023-04-26T22:26:26.971Z,100429.34
2023-04-26T22:31:28.549Z,100429.34
2023-04-26T22:36:30.442Z,100425.34
2023-04-26T22:41:32.054Z,100427.25
2023-04-26T22:46:33.803Z,100418.41
2023-04-26T22:51:35.475Z,100430.38
2023-04-26T22:56:37.492Z,100424.50
2023-04-26T23:01:39.038Z,100424.94
2023-04-26T23:06:40.877Z,100434.34
2023-04-26T23:11:42.458Z,100429.09
2023-04-26T23:16:44.073Z,100428.03
2023-04-26T23:21:45.801Z,100424.28
2023-04-26T23:26:47.396Z,100428.28
2023-04-26T23:31:49.054Z,100431.59
2023-04-26T23:36:50.801Z,100426.59
2023-04-26T23:41:52.341Z,100425.53
2023-04-26T23:46:53.899Z,100432.00
2023-04-26T23:51:55.599Z,100431.56
2023-04-26T23:56:57.273Z,100426.13
